Time;durP1;ratioP1;P1;durP2;ratioP2;P2;SDS_P1;SDS_P2;PMS_P1;PMS_P2;Temp;Humidity;BMP_temperature;BMP_pressure;BME280_temperature;BME280_humidity;BME280_pressure;Samples;Min_cycle;Max_cycle;Signal;HPM_P1;HPM_P2
2023/08/03 00:00:43;;;;;;;6.15;1.85;;;;;16.30;92814.00;;;;7394752;19;20145;-76
2023/08/03 00:03:17;;;;;;;7.68;1.90;;;;;16.30;92805.00;;;;7395274;19;20224;-74
2023/08/03 00:05:47;;;;;;;13.70;2.22;;;;;16.20;92805.00;;;;7395815;19;20610;-79
2023/08/03 00:08:16;;;;;;;7.10;1.67;;;;;16.20;92795.00;;;;7397273;19;20536;-78
2023/08/03 00:10:57;;;;;;;6.43;1.90;;;;;16.20;92800.00;;;;7402051;19;20137;-76
2023/08/03 00:13:31;;;;;;;5.97;1.58;;;;;16.00;92807.00;;;;7402076;19;20144;-77
2023/08/03 00:16:00;;;;;;;6.45;1.42;;;;;16.10;92793.00;;;;7400624;19;20143;-77
2023/08/03 00:18:28;;;;;;;8.35;1.65;;;;;15.90;92795.00;;;;7402478;19;20128;-75
2023/08/03 00:21:03;;;;;;;7.47;1.95;;;;;15.90;92809.00;;;;7402885;19;20139;-75
2023/08/03 00:23:31;;;;;;;5.93;1.58;;;;;16.00;92792.00;;;;7391398;19;20148;-77
2023/08/03 00:25:59;;;;;;;4.53;1.50;;;;;16.10;92798.00;;;;7397946;19;20619;-74
2023/08/03 00:28:33;;;;;;;5.20;1.50;;;;;15.80;92795.00;;;;7401863;19;20237;-74
2023/08/03 00:31:01;;;;;;;5.90;1.55;;;;;15.80;92814.00;;;;7402251;19;20176;-76
2023/08/03 00:33:35;;;;;;;4.45;1.33;;;;;15.90;92795.00;;;;7403594;19;20439;-75
2023/08/03 00:36:09;;;;;;;3.90;1.30;;;;;15.90;92799.00;;;;7401858;19;20137;-76
2023/08/03 00:38:50;;;;;;;6.53;1.45;;;;;16.00;92808.00;;;;7400222;19;20164;-75
2023/08/03 00:41:25;;;;;;;5.78;1.63;;;;;16.00;92810.00;;;;7402258;19;20178;-78
2023/08/03 00:43:59;;;;;;;7.13;1.73;;;;;15.90;92806.00;;;;7400899;19;20157;-75
2023/08/03 00:46:34;;;;;;;8.18;2.17;;;;;15.80;92814.00;;;;7400672;19;20148;-75
2023/08/03 00:49:02;;;;;;;6.03;1.77;;;;;15.90;92819.00;;;;7400045;19;20151;-77
2023/08/03 00:51:39;;;;;;;2.85;1.27;;;;;15.90;92819.00;;;;7400358;19;20135;-75
2023/08/03 00:54:13;;;;;;;6.07;1.50;;;;;15.60;92821.00;;;;7399758;19;20151;-73
2023/08/03 00:56:41;;;;;;;5.13;1.40;;;;;15.50;92814.00;;;;7399805;19;20141;-73
2023/08/03 00:59:16;;;;;;;5.10;1.30;;;;;15.10;92819.00;;;;7399378;19;20140;-74
2023/08/03 01:01:58;;;;;;;10.60;2.15;;;;;15.20;92830.00;;;;7392951;19;20164;-77
2023/08/03 01:04:39;;;;;;;5.93;1.65;;;;;15.20;92831.00;;;;7397461;19;20149;-79
2023/08/03 01:07:14;;;;;;;6.50;1.80;;;;;15.20;92814.00;;;;7397757;19;20594;-78
2023/08/03 01:09:48;;;;;;;7.90;1.58;;;;;15.30;92822.00;;;;7399034;19;20140;-79
2023/08/03 01:12:17;;;;;;;5.18;1.63;;;;;15.40;92825.00;;;;7397363;19;20140;-77
2023/08/03 01:14:51;;;;;;;9.10;1.83;;;;;15.40;92834.00;;;;7396776;19;20156;-82
2023/08/03 01:17:25;;;;;;;5.72;1.60;;;;;15.50;92823.00;;;;7398050;19;20155;-77
2023/08/03 01:19:53;;;;;;;4.93;1.58;;;;;15.50;92819.00;;;;7398290;19;20496;-77
2023/08/03 01:22:22;;;;;;;6.20;1.77;;;;;15.40;92826.00;;;;7397041;19;20145;-84
2023/08/03 01:24:56;;;;;;;5.28;1.73;;;;;15.40;92820.00;;;;7398192;19;20483;-80
2023/08/03 01:27:30;;;;;;;7.30;1.70;;;;;15.30;92818.00;;;;7398433;19;20141;-81
2023/08/03 01:30:07;;;;;;;6.45;1.60;;;;;15.40;92812.00;;;;7399162;19;20159;-79
2023/08/03 01:32:41;;;;;;;3.35;1.50;;;;;15.50;92808.00;;;;7397281;19;20140;-81
2023/08/03 01:35:15;;;;;;;4.55;1.33;;;;;15.50;92807.00;;;;7397400;19;20612;-83
2023/08/03 01:37:51;;;;;;;2.75;1.15;;;;;15.50;92812.00;;;;7397861;19;20495;-83
2023/08/03 01:40:26;;;;;;;10.50;1.85;;;;;15.50;92818.00;;;;7398762;19;20603;-80
2023/08/03 01:43:00;;;;;;;3.45;1.30;;;;;15.60;92820.00;;;;7398782;19;20180;-81
2023/08/03 01:45:34;;;;;;;4.05;1.20;;;;;15.50;92828.00;;;;7394829;19;20148;-79
2023/08/03 01:48:08;;;;;;;6.65;1.30;;;;;15.50;92830.00;;;;7399002;19;20125;-80
2023/08/03 01:50:35;;;;;;;6.78;1.50;;;;;15.50;92813.00;;;;7397854;19;20133;-79
2023/08/03 01:53:13;;;;;;;8.43;1.40;;;;;15.50;92834.00;;;;7398368;19;20598;-81
2023/08/03 01:55:47;;;;;;;4.53;1.20;;;;;15.60;92836.00;;;;7395302;19;20152;-81
2023/08/03 01:58:21;;;;;;;4.47;1.00;;;;;15.50;92837.00;;;;7395764;19;20251;-83
2023/08/03 02:00:55;;;;;;;4.78;1.70;;;;;15.60;92836.00;;;;7395992;19;20156;-79
2023/08/03 02:03:36;;;;;;;3.78;1.42;;;;;15.40;92840.00;;;;7394719;19;20176;-80
2023/08/03 02:06:11;;;;;;;4.90;1.10;;;;;15.40;92871.00;;;;7396552;19;20137;-81
2023/08/03 02:08:45;;;;;;;5.50;1.23;;;;;15.20;92869.00;;;;7395328;19;20612;-76
2023/08/03 02:11:19;;;;;;;5.57;1.15;;;;;14.80;92867.00;;;;7395267;19;20599;-74
2023/08/03 02:13:53;;;;;;;4.43;1.20;;;;;14.90;92863.00;;;;7396204;19;20231;-76
2023/08/03 02:16:27;;;;;;;2.78;0.90;;;;;14.80;92888.00;;;;7392815;19;20147;-75
2023/08/03 02:19:02;;;;;;;1.38;0.80;;;;;14.60;92886.00;;;;7395995;19;20148;-77
2023/08/03 02:21:30;;;;;;;4.07;1.08;;;;;14.50;92878.00;;;;7398245;19;20232;-76
2023/08/03 02:24:04;;;;;;;4.13;1.20;;;;;14.30;92870.00;;;;7396820;19;20140;-74
2023/08/03 02:26:38;;;;;;;4.05;1.15;;;;;14.10;92887.00;;;;7396999;19;20260;-76
2023/08/03 02:29:06;;;;;;;5.80;1.10;;;;;14.00;92875.00;;;;7397431;19;20511;-76
2023/08/03 02:31:33;;;;;;;4.82;1.30;;;;;13.90;92875.00;;;;7395599;19;20140;-76
2023/08/03 02:34:07;;;;;;;2.65;1.00;;;;;13.80;92887.00;;;;7396170;19;20137;-76
2023/08/03 02:36:35;;;;;;;3.45;1.33;;;;;13.90;92882.00;;;;7394146;19;20496;-77
2023/08/03 02:39:09;;;;;;;2.30;1.00;;;;;13.90;92885.00;;;;7395833;19;20614;-75
2023/08/03 02:41:43;;;;;;;4.75;1.00;;;;;14.00;92873.00;;;;7395043;19;20151;-75
2023/08/03 02:44:17;;;;;;;3.53;1.10;;;;;14.00;92882.00;;;;7394773;19;20154;-77
2023/08/03 02:46:45;;;;;;;3.55;1.23;;;;;14.10;92880.00;;;;7396046;19;20152;-77
2023/08/03 02:49:19;;;;;;;3.00;1.23;;;;;14.10;92890.00;;;;7393413;19;20132;-74
2023/08/03 02:51:47;;;;;;;13.23;1.48;;;;;14.10;92897.00;;;;7396680;19;20212;-79
2023/08/03 02:54:21;;;;;;;7.38;1.40;;;;;14.40;92884.00;;;;7394295;19;20145;-79
2023/08/03 02:56:49;;;;;;;5.63;1.77;;;;;14.40;92895.00;;;;7393108;19;20147;-79
2023/08/03 02:59:23;;;;;;;1.80;1.10;;;;;14.40;92898.00;;;;7395032;19;20133;-80
2023/08/03 03:01:51;;;;;;;6.13;1.30;;;;;14.50;92903.00;;;;7395491;19;20156;-81
2023/08/03 03:04:19;;;;;;;5.03;1.50;;;;;14.40;92907.00;;;;7391931;19;20167;-86
2023/08/03 03:06:53;;;;;;;7.40;1.40;;;;;14.20;92905.00;;;;7395191;19;20682;-80
2023/08/03 03:09:21;;;;;;;5.55;1.27;;;;;14.20;92899.00;;;;7395539;19;20172;-78
2023/08/03 03:11:56;;;;;;;7.63;1.60;;;;;14.30;92887.00;;;;7394437;19;20203;-81
2023/08/03 03:14:23;;;;;;;3.42;1.08;;;;;14.30;92882.00;;;;7394927;19;20700;-84
2023/08/03 03:16:58;;;;;;;6.80;1.48;;;;;14.30;92894.00;;;;7392637;19;20152;-83
2023/08/03 03:19:26;;;;;;;8.55;1.40;;;;;14.40;92897.00;;;;7394934;19;20612;-83
2023/08/03 03:22:07;;;;;;;5.55;1.35;;;;;14.40;92890.00;;;;7395066;19;20159;-82
2023/08/03 03:24:35;;;;;;;4.43;1.20;;;;;14.20;92899.00;;;;7396005;19;20133;-83
2023/08/03 03:27:10;;;;;;;4.57;1.08;;;;;14.20;92888.00;;;;7395156;19;20148;-81
2023/08/03 03:29:45;;;;;;;10.10;2.05;;;;;14.10;92901.00;;;;7395509;19;20137;-82
2023/08/03 03:32:13;;;;;;;8.73;1.70;;;;;14.10;92905.00;;;;7394637;19;20205;-83
2023/08/03 03:34:54;;;;;;;5.85;1.60;;;;;14.10;92899.00;;;;7394982;19;20219;-82
2023/08/03 03:37:22;;;;;;;5.10;1.75;;;;;13.90;92910.00;;;;7394039;19;20140;-82
2023/08/03 03:39:57;;;;;;;7.10;1.45;;;;;13.90;92931.00;;;;7393968;19;20500;-85
2023/08/03 03:42:25;;;;;;;5.13;1.75;;;;;13.70;92924.00;;;;7391568;19;20169;-85
2023/08/03 03:45:00;;;;;;;7.15;2.00;;;;;13.40;92934.00;;;;7402682;19;20479;-87
2023/08/03 03:47:34;;;;;;;9.35;1.75;;;;;13.20;92935.00;;;;7401685;19;20504;-84
2023/08/03 03:50:09;;;;;;;8.65;1.98;;;;;13.10;92926.00;;;;7401399;19;20492;-82
2023/08/03 03:52:37;;;;;;;7.90;2.13;;;;;12.80;92934.00;;;;7400361;19;20517;-85
2023/08/03 03:55:11;;;;;;;15.80;2.00;;;;;12.70;92929.00;;;;7402150;19;20190;-81
2023/08/03 03:57:39;;;;;;;11.13;1.85;;;;;12.60;92913.00;;;;7402872;19;20511;-86
2023/08/03 04:00:14;;;;;;;9.15;2.20;;;;;12.50;92914.00;;;;7401735;19;20607;-84
2023/08/03 04:03:01;;;;;;;6.88;2.20;;;;;12.50;92911.00;;;;7400140;19;20167;-85
2023/08/03 04:05:39;;;;;;;8.18;1.90;;;;;12.50;92917.00;;;;7401724;19;20149;-85
2023/08/03 04:08:13;;;;;;;10.25;1.77;;;;;12.50;92915.00;;;;7400983;19;20144;-79
2023/08/03 04:10:47;;;;;;;5.15;1.90;;;;;12.50;92903.00;;;;7402553;19;20620;-82
2023/08/03 04:13:22;;;;;;;4.70;1.27;;;;;12.60;92905.00;;;;7399870;19;20237;-87
2023/08/03 04:15:56;;;;;;;9.95;2.17;;;;;12.60;92898.00;;;;7398812;19;20168;-82
2023/08/03 04:18:24;;;;;;;4.47;1.67;;;;;12.50;92901.00;;;;7401185;19;20137;-84
2023/08/03 04:20:52;;;;;;;4.60;1.40;;;;;12.50;92888.00;;;;7400746;19;20145;-81
2023/08/03 04:23:28;;;;;;;5.40;1.73;;;;;12.50;92905.00;;;;7399194;19;20582;-84
2023/08/03 04:26:03;;;;;;;7.25;1.98;;;;;12.40;92902.00;;;;7402876;19;20164;-85
2023/08/03 04:28:38;;;;;;;7.22;1.60;;;;;12.50;92911.00;;;;7400617;19;20144;-79
2023/08/03 04:31:12;;;;;;;7.65;1.30;;;;;12.50;92904.00;;;;7399126;19;20646;-81
2023/08/03 04:33:47;;;;;;;5.88;1.42;;;;;12.70;92909.00;;;;7399842;19;20184;-81
2023/08/03 04:36:22;;;;;;;6.90;1.92;;;;;12.80;92919.00;;;;7398220;19;20721;-78
2023/08/03 04:38:56;;;;;;;5.32;1.60;;;;;12.80;92909.00;;;;7394832;19;20511;-79
2023/08/03 04:41:30;;;;;;;5.75;1.50;;;;;13.00;92899.00;;;;7396971;19;20467;-80
2023/08/03 04:44:04;;;;;;;4.30;1.40;;;;;13.10;92915.00;;;;7399077;19;20207;-79
2023/08/03 04:46:33;;;;;;;3.95;1.30;;;;;13.20;92902.00;;;;7398383;19;20510;-81
2023/08/03 04:49:01;;;;;;;3.40;1.13;;;;;13.30;92905.00;;;;7397651;19;20205;-78
2023/08/03 04:51:35;;;;;;;7.57;1.50;;;;;13.30;92900.00;;;;7398402;19;20133;-79
2023/08/03 04:54:03;;;;;;;6.13;1.20;;;;;13.30;92897.00;;;;7397249;19;20156;-80
2023/08/03 04:56:31;;;;;;;4.97;1.40;;;;;13.40;92906.00;;;;7395801;19;20137;-78
2023/08/03 04:59:05;;;;;;;3.67;1.30;;;;;13.60;92920.00;;;;7398961;19;20156;-79
2023/08/03 05:01:33;;;;;;;4.13;1.40;;;;;13.80;92929.00;;;;7397638;19;20174;-82
2023/08/03 05:04:13;;;;;;;2.42;0.98;;;;;13.90;92924.00;;;;7395393;19;20743;-79
2023/08/03 05:06:42;;;;;;;3.67;1.20;;;;;14.00;92929.00;;;;7397478;19;20299;-81
2023/08/03 05:09:16;;;;;;;4.03;1.17;;;;;14.10;92926.00;;;;7398463;19;20144;-78
2023/08/03 05:11:44;;;;;;;4.75;1.30;;;;;14.10;92934.00;;;;7399539;19;20161;-83
2023/08/03 05:14:19;;;;;;;4.05;1.08;;;;;14.20;92936.00;;;;7397888;19;20172;-81
2023/08/03 05:16:47;;;;;;;4.70;1.35;;;;;14.20;92944.00;;;;7397352;19;20628;-80
2023/08/03 05:19:21;;;;;;;4.57;1.10;;;;;14.30;92932.00;;;;7397467;19;20136;-80
2023/08/03 05:21:49;;;;;;;5.70;1.38;;;;;14.40;92937.00;;;;7398667;19;20228;-81
2023/08/03 05:24:25;;;;;;;3.10;0.90;;;;;14.20;92933.00;;;;7399339;19;20144;-84
2023/08/03 05:26:53;;;;;;;3.53;0.80;;;;;14.40;92941.00;;;;7397764;19;20599;-79
2023/08/03 05:29:31;;;;;;;1.25;0.80;;;;;14.40;92942.00;;;;7397271;19;20244;-81
2023/08/03 05:31:59;;;;;;;1.95;0.80;;;;;14.20;92963.00;;;;7396426;19;20125;-85
2023/08/03 05:34:33;;;;;;;4.22;0.70;;;;;14.00;92969.00;;;;7397535;19;20140;-79
2023/08/03 05:37:08;;;;;;;1.55;0.65;;;;;13.90;92979.00;;;;7396217;19;20149;-82
2023/08/03 05:39:43;;;;;;;5.05;1.00;;;;;13.70;92973.00;;;;7397350;19;20512;-83
2023/08/03 05:42:16;;;;;;;1.17;0.70;;;;;13.50;92980.00;;;;7397314;19;20145;-83
2023/08/03 05:44:51;;;;;;;3.03;0.70;;;;;13.30;92979.00;;;;7396344;19;20611;-81
2023/08/03 05:47:19;;;;;;;2.42;1.17;;;;;13.10;92983.00;;;;7396753;19;20224;-84
2023/08/03 05:49:53;;;;;;;2.20;0.75;;;;;13.00;92996.00;;;;7398286;19;20135;-85
2023/08/03 05:52:21;;;;;;;0.95;0.80;;;;;12.90;93002.00;;;;7397816;19;20165;-84
2023/08/03 05:54:55;;;;;;;3.28;0.90;;;;;12.70;93004.00;;;;7393589;19;20148;-85
2023/08/03 05:57:23;;;;;;;3.90;0.65;;;;;12.70;92988.00;;;;7395933;19;20204;-86
2023/08/03 06:00:21;;;;;;;1.30;0.60;;;;;12.80;92985.00;;;;7395500;19;20147;-83
2023/08/03 06:02:49;;;;;;;1.77;0.60;;;;;12.80;92985.00;;;;7390377;19;20180;-83
2023/08/03 06:05:52;;;;;;;2.40;0.88;;;;;12.90;92975.00;;;;7395540;19;20244;-77
2023/08/03 06:08:22;;;;;;;4.45;0.80;;;;;12.90;92983.00;;;;7394589;19;20694;-79
2023/08/03 06:11:00;;;;;;;2.03;0.55;;;;;13.00;92979.00;;;;7395372;19;20679;-80
2023/08/03 06:13:34;;;;;;;4.97;0.93;;;;;13.10;92989.00;;;;7393981;19;20592;-85
2023/08/03 06:16:11;;;;;;;3.15;1.00;;;;;13.10;92981.00;;;;7390947;19;20147;-81
2023/08/03 06:18:55;;;;;;;4.22;1.10;;;;;13.20;92991.00;;;;7395729;19;20222;-84
2023/08/03 06:21:29;;;;;;;2.35;0.93;;;;;13.20;92998.00;;;;7394873;19;20743;-82
2023/08/03 06:24:03;;;;;;;4.18;1.08;;;;;13.30;92997.00;;;;7391317;19;20166;-81
2023/08/03 06:26:39;;;;;;;5.45;1.27;;;;;13.40;92996.00;;;;7394923;19;20179;-79
2023/08/03 06:29:12;;;;;;;3.15;1.02;;;;;13.50;93004.00;;;;7394331;19;20145;-80
2023/08/03 06:31:47;;;;;;;5.60;0.82;;;;;13.60;93003.00;;;;7395530;19;20571;-84
2023/08/03 06:34:16;;;;;;;1.60;1.05;;;;;13.70;92989.00;;;;7395927;19;20136;-81
2023/08/03 06:36:51;;;;;;;4.25;1.23;;;;;13.80;92993.00;;;;7390161;19;20140;-79
2023/08/03 06:39:34;;;;;;;2.90;0.93;;;;;14.00;93003.00;;;;7391988;19;20145;-79
2023/08/03 06:42:15;;;;;;;6.38;1.27;;;;;14.30;93002.00;;;;7395111;19;20156;-84
2023/08/03 06:44:52;;;;;;;3.17;1.00;;;;;14.60;92988.00;;;;7394419;19;20145;-77
2023/08/03 06:47:27;;;;;;;1.15;0.68;;;;;14.80;93005.00;;;;7394830;19;20151;-82
2023/08/03 06:49:55;;;;;;;2.53;0.98;;;;;14.70;93009.00;;;;7392970;19;20173;-77
2023/08/03 06:52:30;;;;;;;4.75;1.00;;;;;14.70;92985.00;;;;7395201;19;20151;-77
2023/08/03 06:54:57;;;;;;;4.25;1.35;;;;;14.70;92998.00;;;;7392359;19;20133;-75
2023/08/03 06:57:32;;;;;;;3.50;1.10;;;;;14.80;93008.00;;;;7392314;19;20738;-76
2023/08/03 07:00:00;;;;;;;2.70;1.30;;;;;14.70;93003.00;;;;7394711;19;20145;-78
2023/08/03 07:02:35;;;;;;;6.00;1.17;;;;;14.90;93024.00;;;;7392946;19;20144;-77
2023/08/03 07:05:17;;;;;;;3.55;0.90;;;;;15.10;93004.00;;;;7394867;19;20152;-74
2023/08/03 07:07:51;;;;;;;3.13;1.25;;;;;15.40;93032.00;;;;7394770;19;20615;-76
2023/08/03 07:10:27;;;;;;;4.30;1.45;;;;;15.50;93025.00;;;;7394858;19;20501;-75
2023/08/03 07:12:56;;;;;;;2.63;0.80;;;;;15.50;93037.00;;;;7394739;19;20164;-79
2023/08/03 07:15:34;;;;;;;6.38;1.10;;;;;15.20;93022.00;;;;7394876;19;20144;-79
2023/08/03 07:18:09;;;;;;;5.13;1.30;;;;;15.00;93048.00;;;;7395049;19;20152;-81
2023/08/03 07:20:43;;;;;;;2.88;0.80;;;;;15.20;93036.00;;;;7401596;19;20144;-78
2023/08/03 07:23:11;;;;;;;3.10;1.10;;;;;15.20;93033.00;;;;7401015;19;20257;-79
2023/08/03 07:25:45;;;;;;;2.83;1.13;;;;;15.50;93032.00;;;;7400408;19;20317;-81
2023/08/03 07:28:20;;;;;;;1.95;0.90;;;;;15.70;93047.00;;;;7403354;19;20236;-75
2023/08/03 07:30:56;;;;;;;2.17;0.80;;;;;15.80;93047.00;;;;7403466;19;20138;-75
2023/08/03 07:33:24;;;;;;;2.20;0.77;;;;;15.80;93061.00;;;;7397277;19;20149;-76
2023/08/03 07:35:51;;;;;;;5.13;1.05;;;;;15.70;93063.00;;;;7401731;19;20149;-73
2023/08/03 07:38:26;;;;;;;2.75;0.95;;;;;15.90;93054.00;;;;7400026;19;20626;-75
2023/08/03 07:40:54;;;;;;;6.35;1.05;;;;;16.00;93056.00;;;;7400182;19;20156;-74
2023/08/03 07:43:21;;;;;;;4.25;1.10;;;;;15.80;93083.00;;;;7402846;19;20603;-78
2023/08/03 07:45:56;;;;;;;2.35;0.98;;;;;16.00;93052.00;;;;7401628;19;20483;-73
2023/08/03 07:48:24;;;;;;;4.32;1.30;;;;;16.00;93075.00;;;;7401055;19;20129;-74
2023/08/03 07:50:51;;;;;;;2.63;0.98;;;;;15.90;93067.00;;;;7402979;19;20157;-73
2023/08/03 07:53:26;;;;;;;2.70;0.85;;;;;15.80;93074.00;;;;7400872;19;20149;-83
2023/08/03 07:56:03;;;;;;;8.20;1.15;;;;;15.80;93071.00;;;;7400063;19;20173;-75
2023/08/03 07:58:37;;;;;;;2.85;0.82;;;;;16.10;93037.00;;;;7397265;19;20148;-76
2023/08/03 08:01:11;;;;;;;2.97;1.13;;;;;16.90;93049.00;;;;7400076;19;20164;-74
2023/08/03 08:03:48;;;;;;;3.35;1.00;;;;;16.70;93045.00;;;;7397365;19;20974;-75
2023/08/03 08:06:23;;;;;;;3.15;0.80;;;;;16.90;93059.00;;;;7400828;19;20141;-75
2023/08/03 08:08:51;;;;;;;3.63;1.00;;;;;17.30;93048.00;;;;7400670;19;20140;-72
2023/08/03 08:11:28;;;;;;;3.38;1.20;;;;;17.20;93067.00;;;;7399429;19;20167;-73
2023/08/03 08:14:02;;;;;;;3.47;1.40;;;;;16.70;93062.00;;;;7402098;19;20153;-76
2023/08/03 08:16:36;;;;;;;1.90;0.75;;;;;16.50;93066.00;;;;7399383;19;20164;-75
2023/08/03 08:19:04;;;;;;;2.63;0.80;;;;;16.00;93076.00;;;;7400822;19;20140;-81
2023/08/03 08:21:38;;;;;;;5.55;0.90;;;;;16.30;93058.00;;;;7400374;19;20144;-80
2023/08/03 08:24:16;;;;;;;2.40;0.80;;;;;16.10;93051.00;;;;7401015;19;20154;-76
2023/08/03 08:26:50;;;;;;;2.35;0.90;;;;;16.80;93044.00;;;;7397707;19;20139;-79
2023/08/03 08:29:24;;;;;;;2.67;0.85;;;;;17.50;93056.00;;;;7399640;19;20136;-79
2023/08/03 08:31:53;;;;;;;2.15;0.85;;;;;18.10;93049.00;;;;7400843;19;20129;-81
2023/08/03 08:34:28;;;;;;;1.50;0.75;;;;;17.90;93079.00;;;;7401425;19;20480;-80
2023/08/03 08:36:59;;;;;;;1.67;0.80;;;;;17.80;93053.00;;;;7401319;19;20152;-80
2023/08/03 08:39:33;;;;;;;1.55;0.85;;;;;18.00;93061.00;;;;7398954;19;20159;-77
2023/08/03 08:42:10;;;;;;;1.92;0.73;;;;;17.80;93100.00;;;;7398578;19;20471;-73
2023/08/03 08:44:44;;;;;;;2.45;0.90;;;;;17.70;93093.00;;;;7402108;19;20120;-75
2023/08/03 08:47:12;;;;;;;3.00;0.90;;;;;17.80;93107.00;;;;7400197;19;20133;-72
2023/08/03 08:49:40;;;;;;;2.15;0.73;;;;;17.60;93118.00;;;;7400668;19;20184;-75
2023/08/03 08:52:18;;;;;;;2.95;1.02;;;;;17.70;93105.00;;;;7400403;19;20160;-82
2023/08/03 08:54:46;;;;;;;0.90;0.75;;;;;18.40;93088.00;;;;7399970;19;20587;-76
2023/08/03 08:57:23;;;;;;;2.83;0.98;;;;;18.10;93108.00;;;;7398150;19;20603;-81
2023/08/03 09:00:05;;;;;;;2.55;0.80;;;;;17.30;93112.00;;;;7400270;19;20130;-71
2023/08/03 09:02:42;;;;;;;2.38;0.63;;;;;17.60;93102.00;;;;7396659;19;20189;-75
2023/08/03 09:05:26;;;;;;;1.73;0.77;;;;;18.20;93107.00;;;;7398317;19;20513;-76
2023/08/03 09:08:14;;;;;;;1.85;0.77;;;;;18.30;93110.00;;;;7398864;19;20485;-78
2023/08/03 09:10:53;;;;;;;0.68;0.50;;;;;18.20;93131.00;;;;7398959;19;20196;-79
2023/08/03 09:13:37;;;;;;;2.90;1.00;;;;;18.00;93123.00;;;;7399422;19;20665;-79
2023/08/03 09:16:23;;;;;;;1.50;0.80;;;;;17.50;93155.00;;;;7399094;19;20133;-78
2023/08/03 09:18:51;;;;;;;1.67;0.65;;;;;17.50;93142.00;;;;7396628;19;20157;-78
2023/08/03 09:21:25;;;;;;;5.60;1.15;;;;;17.60;93163.00;;;;7396493;19;20140;-82
2023/08/03 09:24:18;;;;;;;3.80;1.00;;;;;17.40;93158.00;;;;7397699;19;20152;-89
2023/08/03 09:26:56;;;;;;;0.90;0.50;;;;;17.30;93160.00;;;;7397265;19;20500;-81
2023/08/03 09:29:34;;;;;;;2.13;0.68;;;;;17.50;93175.00;;;;7398429;19;20620;-79
2023/08/03 09:32:08;;;;;;;2.88;0.73;;;;;16.80;93186.00;;;;7400203;19;20125;-82
2023/08/03 09:34:47;;;;;;;2.70;0.60;;;;;16.90;93180.00;;;;7397387;19;20608;-81
2023/08/03 09:37:16;;;;;;;0.77;0.50;;;;;16.70;93193.00;;;;7398331;19;20140;-83
2023/08/03 09:40:10;;;;;;;1.13;0.70;;;;;16.80;93199.00;;;;7397908;19;20505;-78
2023/08/03 09:42:39;;;;;;;3.10;0.82;;;;;16.90;93191.00;;;;7399043;19;20480;-80
2023/08/03 09:45:14;;;;;;;7.97;1.08;;;;;16.80;93190.00;;;;7395652;19;20156;-80
2023/08/03 09:47:45;;;;;;;1.13;0.68;;;;;17.10;93195.00;;;;7398562;19;20592;-78
2023/08/03 09:50:19;;;;;;;3.42;0.90;;;;;16.90;93219.00;;;;7396957;19;20203;-76
2023/08/03 09:52:52;;;;;;;1.15;0.60;;;;;17.00;93219.00;;;;7396128;19;20145;-77
2023/08/03 09:55:36;;;;;;;2.00;0.82;;;;;17.20;93210.00;;;;7396719;19;20176;-78
2023/08/03 09:58:15;;;;;;;1.65;0.70;;;;;16.90;93241.00;;;;7398309;19;20592;-76
2023/08/03 10:00:45;;;;;;;1.98;0.70;;;;;16.80;93216.00;;;;7396190;19;20140;-77
2023/08/03 10:03:20;;;;;;;0.73;0.50;;;;;17.30;93227.00;;;;7395546;19;20164;-78
2023/08/03 10:06:07;;;;;;;1.10;0.55;;;;;17.10;93239.00;;;;7395892;19;20140;-76
2023/08/03 10:08:51;;;;;;;1.58;0.50;;;;;17.70;93233.00;;;;7398343;19;20453;-76
2023/08/03 10:11:42;;;;;;;3.88;0.82;;;;;17.80;93221.00;;;;7396359;19;20204;-77
2023/08/03 10:14:18;;;;;;;3.60;1.13;;;;;18.10;93217.00;;;;7398054;19;20200;-76
2023/08/03 10:16:54;;;;;;;1.55;0.70;;;;;18.00;93228.00;;;;7397542;19;20620;-80
2023/08/03 10:19:23;;;;;;;3.60;0.95;;;;;17.80;93233.00;;;;7396274;19;20627;-80
2023/08/03 10:21:57;;;;;;;2.75;0.52;;;;;17.70;93216.00;;;;7396517;19;20144;-78
2023/08/03 10:24:33;;;;;;;2.92;0.82;;;;;17.90;93225.00;;;;7395568;19;20622;-76
2023/08/03 10:27:18;;;;;;;1.77;0.63;;;;;18.10;93210.00;;;;7396601;19;20603;-77
2023/08/03 10:29:55;;;;;;;1.15;0.70;;;;;18.50;93212.00;;;;7397354;19;20141;-84
2023/08/03 10:32:29;;;;;;;1.52;0.65;;;;;18.20;93213.00;;;;7393894;19;20150;-76
2023/08/03 10:35:37;;;;;;;4.05;0.65;;;;;19.10;93205.00;;;;7395218;19;20626;-76
2023/08/03 10:38:22;;;;;;;0.85;0.60;;;;;19.90;93233.00;;;;7394924;19;20614;-79
2023/08/03 10:41:21;;;;;;;1.55;0.82;;;;;19.70;93212.00;;;;7397334;19;20137;-83
2023/08/03 10:44:20;;;;;;;3.88;0.75;;;;;20.00;93227.00;;;;7398755;19;20129;-84
2023/08/03 10:46:56;;;;;;;1.00;0.68;;;;;19.40;93240.00;;;;7396585;19;20152;-79
2023/08/03 10:49:28;;;;;;;2.00;0.88;;;;;18.80;93254.00;;;;7396163;19;20164;-79
2023/08/03 10:52:29;;;;;;;1.33;0.77;;;;;18.00;93288.00;;;;7393179;19;20157;-78
2023/08/03 10:54:58;;;;;;;1.52;0.95;;;;;17.50;93255.00;;;;7394446;19;20152;-77
2023/08/03 10:57:33;;;;;;;2.53;0.57;;;;;17.40;93263.00;;;;7395082;19;20140;-77
2023/08/03 11:00:04;;;;;;;2.05;0.50;;;;;17.10;93266.00;;;;7397193;19;20454;-78
2023/08/03 11:02:42;;;;;;;1.92;0.88;;;;;17.20;93270.00;;;;7394232;19;20172;-78
2023/08/03 11:05:16;;;;;;;2.45;0.90;;;;;17.50;93266.00;;;;7393525;19;20495;-81
2023/08/03 11:07:59;;;;;;;2.03;0.85;;;;;17.60;93271.00;;;;7398378;19;20628;-78
2023/08/03 11:10:28;;;;;;;1.08;0.57;;;;;17.60;93274.00;;;;7396191;19;20152;-83
2023/08/03 11:13:02;;;;;;;1.75;0.65;;;;;17.70;93261.00;;;;7395751;19;20140;-80
2023/08/03 11:15:30;;;;;;;0.80;0.52;;;;;17.70;93262.00;;;;7397061;19;20137;-83
2023/08/03 11:18:16;;;;;;;2.60;0.82;;;;;17.60;93265.00;;;;7394117;19;20148;-81
2023/08/03 11:20:43;;;;;;;1.60;0.77;;;;;17.80;93264.00;;;;7394137;19;20144;-80
2023/08/03 11:23:18;;;;;;;2.15;0.70;;;;;18.00;93294.00;;;;7394790;19;20625;-77
2023/08/03 11:25:54;;;;;;;1.50;0.65;;;;;17.90;93277.00;;;;7394991;19;20612;-80
2023/08/03 11:28:21;;;;;;;1.02;0.40;;;;;18.10;93281.00;;;;7393010;19;20490;-78
2023/08/03 11:30:56;;;;;;;1.45;0.77;;;;;18.40;93282.00;;;;7390437;19;20148;-81
2023/08/03 11:33:24;;;;;;;3.03;0.70;;;;;18.20;93278.00;;;;7395401;19;20557;-83
2023/08/03 11:35:58;;;;;;;1.10;0.70;;;;;18.10;93285.00;;;;7393105;19;20153;-80
2023/08/03 11:38:26;;;;;;;0.63;0.50;;;;;17.60;93286.00;;;;7393000;19;20122;-82
2023/08/03 11:41:00;;;;;;;3.50;0.80;;;;;17.70;93275.00;;;;7393765;19;20148;-81
2023/08/03 11:43:38;;;;;;;1.38;0.57;;;;;17.60;93277.00;;;;7395067;19;20613;-86
2023/08/03 11:46:06;;;;;;;2.00;0.63;;;;;17.20;93293.00;;;;7392601;19;20156;-78
2023/08/03 11:48:45;;;;;;;1.63;0.60;;;;;17.10;93304.00;;;;7394873;19;20216;-82
2023/08/03 11:51:12;;;;;;;1.15;0.70;;;;;16.90;93307.00;;;;7393034;19;20647;-82
2023/08/03 11:53:47;;;;;;;1.75;0.70;;;;;17.00;93303.00;;;;7393522;19;20155;-82
2023/08/03 11:56:15;;;;;;;2.08;0.80;;;;;16.90;93304.00;;;;7392670;19;20141;-80
2023/08/03 11:59:08;;;;;;;2.10;0.80;;;;;17.20;93302.00;;;;7385564;19;20652;-80
2023/08/03 12:01:45;;;;;;;1.63;0.68;;;;;17.40;93297.00;;;;7389476;19;20132;-80
2023/08/03 12:04:26;;;;;;;1.17;0.68;;;;;17.90;93292.00;;;;7388829;19;20161;-78
2023/08/03 12:07:03;;;;;;;0.82;0.40;;;;;18.10;93296.00;;;;7397177;19;20140;-79
2023/08/03 12:09:41;;;;;;;3.75;0.80;;;;;18.30;93296.00;;;;7397198;19;20132;-79
2023/08/03 12:12:11;;;;;;;2.88;0.95;;;;;18.10;93306.00;;;;7394887;19;20748;-79
2023/08/03 12:14:45;;;;;;;2.00;0.82;;;;;18.40;93291.00;;;;7394941;19;20148;-79
2023/08/03 12:17:13;;;;;;;1.83;0.80;;;;;18.60;93293.00;;;;7396858;19;20147;-80
2023/08/03 12:19:47;;;;;;;0.68;0.55;;;;;18.30;93287.00;;;;7395161;19;20605;-82
2023/08/03 12:22:15;;;;;;;1.75;0.60;;;;;18.20;93292.00;;;;7394822;19;20141;-80
2023/08/03 12:24:49;;;;;;;1.33;0.77;;;;;17.90;93296.00;;;;7396756;19;20594;-83
2023/08/03 12:27:17;;;;;;;1.40;0.70;;;;;18.10;93306.00;;;;7392266;19;20480;-82
2023/08/03 12:29:51;;;;;;;1.73;0.88;;;;;18.00;93304.00;;;;7395000;19;20594;-79
2023/08/03 12:32:19;;;;;;;1.25;0.80;;;;;18.30;93291.00;;;;7399995;19;20133;-81
2023/08/03 12:34:53;;;;;;;1.60;0.75;;;;;18.80;93309.00;;;;7399631;19;20619;-81
2023/08/03 12:37:27;;;;;;;1.33;0.93;;;;;18.40;93322.00;;;;7401759;19;20196;-84
2023/08/03 12:39:55;;;;;;;1.60;0.70;;;;;17.80;93306.00;;;;7398109;19;20136;-81
2023/08/03 12:42:29;;;;;;;2.28;0.75;;;;;18.00;93305.00;;;;7399735;19;20152;-81
2023/08/03 12:45:04;;;;;;;1.95;0.90;;;;;17.90;93315.00;;;;7400637;19;20229;-82
2023/08/03 12:47:39;;;;;;;4.13;0.90;;;;;17.90;93318.00;;;;7400287;19;20139;-78
2023/08/03 12:50:08;;;;;;;1.92;0.90;;;;;18.70;93296.00;;;;7401094;19;20204;-81
2023/08/03 12:52:42;;;;;;;2.05;0.90;;;;;19.20;93281.00;;;;7399620;19;20149;-82